createdAt,value
2018-03-11T00:02:11.345Z,63.13
2018-03-11T00:04:39.493Z,63.13
2018-03-11T00:07:07.341Z,66.33
2018-03-11T00:09:34.994Z,58.23
2018-03-11T00:12:02.556Z,63.73
2018-03-11T00:14:30.127Z,62.60
2018-03-11T00:16:57.802Z,61.13
2018-03-11T00:19:25.386Z,62.10
2018-03-11T00:21:52.946Z,59.63
2018-03-11T00:24:20.564Z,58.93
2018-03-11T00:26:48.193Z,60.60
2018-03-11T00:29:15.788Z,60.03
2018-03-11T00:31:43.348Z,60.17
2018-03-11T00:34:10.956Z,61.40
2018-03-11T00:36:38.592Z,68.07
2018-03-11T00:39:06.188Z,61.17
2018-03-11T00:41:33.763Z,54.53
2018-03-11T00:44:01.376Z,57.60
2018-03-11T00:46:28.972Z,55.63
2018-03-11T00:48:56.548Z,62.37
2018-03-11T00:51:24.161Z,65.13
2018-03-11T00:53:51.766Z,58.40
2018-03-11T00:56:19.771Z,57.77
2018-03-11T00:58:47.369Z,55.10
2018-03-11T01:01:14.951Z,60.63
2018-03-11T01:03:42.573Z,54.30
2018-03-11T01:06:10.157Z,57.37
2018-03-11T01:08:37.721Z,60.03
2018-03-11T01:11:05.363Z,54.63
2018-03-11T01:13:32.962Z,54.33
2018-03-11T01:16:00.544Z,51.73
2018-03-11T01:18:28.131Z,57.67
2018-03-11T01:20:55.686Z,51.57
2018-03-11T01:23:23.304Z,53.90
2018-03-11T01:25:50.940Z,59.40
2018-03-11T01:28:18.613Z,55.03
2018-03-11T01:30:46.199Z,48.30
2018-03-11T01:33:13.787Z,51.13
2018-03-11T01:35:41.396Z,56.33
2018-03-11T01:38:08.958Z,55.70
2018-03-11T01:40:36.567Z,53.27
2018-03-11T01:43:04.130Z,50.10
2018-03-11T01:45:31.732Z,57.20
2018-03-11T01:47:59.374Z,55.50
2018-03-11T01:50:26.960Z,53.93
2018-03-11T01:53:06.481Z,57.90
2018-03-11T01:55:34.025Z,52.10
2018-03-11T01:58:01.595Z,50.10
2018-03-11T02:00:29.423Z,57.07
2018-03-11T02:02:57.070Z,58.50
2018-03-11T02:05:24.667Z,57.83
2018-03-11T02:07:52.272Z,54.90
2018-03-11T02:10:19.877Z,57.07
2018-03-11T02:12:47.469Z,55.60
2018-03-11T02:15:15.124Z,51.20
2018-03-11T02:17:42.771Z,46.63
2018-03-11T02:20:10.348Z,51.17
2018-03-11T02:22:37.974Z,52.00
2018-03-11T02:25:05.676Z,47.90
2018-03-11T02:27:33.257Z,50.20
2018-03-11T02:30:00.893Z,50.30
2018-03-11T02:32:28.693Z,49.30
2018-03-11T02:34:56.253Z,51.57
2018-03-11T02:37:23.881Z,45.03
2018-03-11T02:39:51.457Z,52.80
2018-03-11T02:42:19.018Z,57.13
2018-03-11T02:44:46.641Z,56.90
2018-03-11T02:47:14.216Z,58.97
2018-03-11T02:49:41.844Z,75.50
2018-03-11T02:52:09.420Z,63.10
2018-03-11T02:54:36.980Z,55.47
2018-03-11T02:57:04.625Z,55.67
2018-03-11T02:59:32.219Z,53.50
2018-03-11T03:01:59.815Z,55.23
2018-03-11T03:04:27.444Z,52.57
2018-03-11T03:06:55.083Z,58.83
2018-03-11T03:09:22.649Z,60.50
2018-03-11T03:11:50.242Z,54.90
2018-03-11T03:14:17.829Z,69.47
2018-03-11T03:16:45.442Z,53.87
2018-03-11T03:19:13.009Z,66.20
2018-03-11T03:21:40.614Z,47.13
2018-03-11T03:24:08.254Z,54.23
2018-03-11T03:26:35.846Z,52.10
2018-03-11T03:29:03.470Z,53.43
2018-03-11T03:31:31.081Z,54.60
2018-03-11T03:33:58.671Z,54.40
2018-03-11T03:36:26.325Z,52.00
2018-03-11T03:38:53.899Z,51.53
2018-03-11T03:41:21.464Z,53.07
2018-03-11T03:43:49.062Z,51.53
2018-03-11T03:46:16.639Z,53.37
2018-03-11T03:48:44.389Z,57.10
2018-03-11T03:51:12.032Z,55.10
2018-03-11T03:53:39.641Z,60.40
2018-03-11T03:56:07.270Z,54.87
2018-03-11T03:58:35.204Z,63.47
2018-03-11T04:01:03.006Z,59.60
2018-03-11T04:03:30.948Z,64.73
2018-03-11T04:05:58.529Z,60.70
2018-03-11T04:08:26.132Z,57.60
2018-03-11T04:10:54.021Z,58.13
2018-03-11T04:13:21.702Z,54.60
2018-03-11T04:15:49.740Z,50.43
2018-03-11T04:18:17.383Z,62.40
2018-03-11T04:20:45.004Z,56.47
2018-03-11T04:23:12.857Z,52.37
2018-03-11T04:25:40.420Z,56.17
2018-03-11T04:28:08.091Z,58.33
2018-03-11T04:30:35.686Z,52.60
2018-03-11T04:33:03.251Z,64.40
2018-03-11T04:35:30.882Z,67.80
2018-03-11T04:37:58.450Z,65.30
2018-03-11T04:40:26.030Z,58.70
2018-03-11T04:42:53.670Z,55.43
2018-03-11T04:45:21.266Z,49.37
2018-03-11T04:47:48.840Z,41.50
2018-03-11T04:50:16.544Z,41.30
2018-03-11T04:52:44.126Z,44.37
2018-03-11T04:55:11.975Z,47.10
2018-03-11T04:57:39.825Z,40.87
2018-03-11T05:00:07.398Z,41.70
2018-03-11T05:02:34.992Z,51.77
2018-03-11T05:05:02.623Z,47.63
2018-03-11T05:07:30.202Z,51.73
2018-03-11T05:09:57.771Z,42.33
2018-03-11T05:12:25.418Z,45.53
2018-03-11T05:14:53.033Z,45.47
2018-03-11T05:17:20.594Z,51.33
2018-03-11T05:19:48.288Z,42.87
2018-03-11T05:22:15.860Z,41.13
2018-03-11T05:24:43.430Z,46.20
2018-03-11T05:27:11.050Z,41.50
2018-03-11T05:29:38.626Z,40.73
2018-03-11T05:32:06.192Z,53.47
2018-03-11T05:34:33.843Z,38.33
2018-03-11T05:37:01.414Z,43.70
2018-03-11T05:39:28.970Z,47.03
2018-03-11T05:41:56.847Z,40.00
2018-03-11T05:44:24.563Z,45.33
2018-03-11T05:46:52.193Z,46.10
2018-03-11T05:49:19.768Z,40.43
2018-03-11T05:51:47.383Z,41.20
2018-03-11T05:54:15.205Z,46.57
2018-03-11T05:56:42.862Z,40.30
2018-03-11T05:59:10.489Z,41.77
2018-03-11T06:01:38.061Z,41.17
2018-03-11T06:04:05.702Z,44.90
2018-03-11T06:06:33.368Z,41.87
2018-03-11T06:09:00.991Z,50.70
2018-03-11T06:11:28.554Z,44.20
2018-03-11T06:13:56.205Z,49.57
2018-03-11T06:16:23.778Z,44.90
2018-03-11T06:18:51.725Z,50.27
2018-03-11T06:21:19.376Z,49.93
2018-03-11T06:23:46.990Z,61.60
2018-03-11T06:26:14.799Z,55.87
2018-03-11T06:28:42.386Z,50.90
2018-03-11T06:31:09.960Z,58.13
2018-03-11T06:33:37.571Z,58.10
2018-03-11T06:36:05.468Z,52.40
2018-03-11T06:38:33.028Z,61.03
2018-03-11T06:41:00.622Z,65.40
2018-03-11T06:43:28.187Z,69.37
2018-03-11T06:45:55.822Z,51.87
2018-03-11T06:48:23.463Z,66.97
2018-03-11T06:50:51.043Z,61.77
2018-03-11T06:53:18.678Z,56.13
2018-03-11T06:55:46.249Z,59.37
2018-03-11T06:58:13.873Z,62.50
2018-03-11T07:00:41.504Z,57.70
2018-03-11T07:03:09.079Z,62.27
2018-03-11T07:05:36.632Z,55.33
2018-03-11T07:08:04.244Z,60.67
2018-03-11T07:10:31.825Z,56.67
2018-03-11T07:12:59.392Z,54.43
2018-03-11T07:15:26.996Z,61.10
2018-03-11T07:17:54.825Z,58.30
2018-03-11T07:20:22.456Z,56.77
2018-03-11T07:22:50.005Z,56.00
2018-03-11T07:25:17.633Z,53.00
2018-03-11T07:27:45.215Z,60.43
2018-03-11T07:30:12.898Z,64.10
2018-03-11T07:32:40.772Z,52.33
2018-03-11T07:35:08.600Z,69.80
2018-03-11T07:37:36.198Z,63.07
2018-03-11T07:40:03.801Z,56.23
2018-03-11T07:42:31.436Z,52.23
2018-03-11T07:44:59.018Z,54.53
2018-03-11T07:47:26.606Z,49.40
2018-03-11T07:49:54.514Z,51.50
2018-03-11T07:52:22.086Z,53.53
2018-03-11T07:54:49.648Z,52.00
2018-03-11T07:57:17.494Z,50.10
2018-03-11T07:59:45.475Z,45.77
2018-03-11T08:02:13.302Z,54.60
2018-03-11T08:04:40.958Z,47.43
2018-03-11T08:07:09.670Z,45.37
2018-03-11T08:09:37.559Z,47.93
2018-03-11T08:12:05.252Z,42.40
2018-03-11T08:14:32.941Z,44.93
2018-03-11T08:17:00.564Z,44.20
2018-03-11T08:19:28.185Z,39.27
2018-03-11T08:21:55.946Z,42.37
2018-03-11T08:24:23.849Z,41.30
2018-03-11T08:26:51.425Z,38.07
2018-03-11T08:29:19.262Z,43.57
2018-03-11T08:31:46.906Z,32.43
2018-03-11T08:34:14.548Z,41.80
2018-03-11T08:36:42.196Z,35.57
2018-03-11T08:39:09.809Z,34.97
2018-03-11T08:41:37.380Z,40.40
2018-03-11T08:44:05.024Z,33.10
2018-03-11T08:46:32.604Z,34.10
2018-03-11T08:49:00.179Z,35.53
2018-03-11T08:51:27.783Z,32.97
2018-03-11T08:53:55.368Z,27.43
2018-03-11T08:56:23.292Z,37.93
2018-03-11T08:58:50.855Z,29.63
2018-03-11T09:01:18.449Z,26.00
2018-03-11T09:03:46.220Z,30.43
2018-03-11T09:06:14.183Z,28.77
2018-03-11T09:08:41.838Z,27.37
2018-03-11T09:11:09.444Z,27.20
2018-03-11T09:13:37.007Z,24.53
2018-03-11T09:16:04.651Z,21.23
2018-03-11T09:18:32.231Z,21.27
2018-03-11T09:20:59.820Z,22.83
2018-03-11T09:23:27.468Z,18.60
2018-03-11T09:25:55.088Z,18.30
2018-03-11T09:28:22.658Z,16.70
2018-03-11T09:30:50.275Z,16.57
2018-03-11T09:33:17.860Z,17.27
2018-03-11T09:35:48.573Z,17.73
2018-03-11T09:38:16.466Z,16.83
2018-03-11T09:40:44.090Z,17.17
2018-03-11T09:43:11.688Z,15.03
2018-03-11T09:45:39.351Z,16.17
2018-03-11T09:48:06.998Z,21.00
2018-03-11T09:50:34.586Z,19.30
2018-03-11T09:53:02.555Z,16.27
2018-03-11T09:55:30.125Z,19.97
2018-03-11T09:57:57.778Z,17.50
2018-03-11T10:00:25.408Z,14.57
2018-03-11T10:02:53.072Z,16.33
2018-03-11T10:05:20.643Z,22.63
2018-03-11T10:07:48.276Z,14.63
2018-03-11T10:10:16.180Z,17.60
2018-03-11T10:12:43.780Z,17.27
2018-03-11T10:15:11.392Z,16.40
2018-03-11T10:17:38.979Z,16.87
2018-03-11T10:20:06.560Z,22.40
2018-03-11T10:22:34.192Z,16.00
2018-03-11T10:25:01.785Z,16.70
2018-03-11T10:27:29.650Z,18.97
2018-03-11T10:29:57.225Z,18.40
2018-03-11T10:32:25.030Z,15.10
2018-03-11T10:34:52.645Z,18.53
2018-03-11T10:37:20.305Z,17.43
2018-03-11T10:39:47.884Z,15.90
2018-03-11T10:42:15.477Z,15.03
2018-03-11T10:44:43.128Z,17.93
2018-03-11T10:47:11.867Z,21.93
2018-03-11T10:49:39.703Z,17.20
2018-03-11T10:52:07.375Z,16.17
2018-03-11T10:54:35.198Z,24.27
2018-03-11T10:57:02.807Z,16.27
2018-03-11T10:59:30.456Z,22.87
2018-03-11T11:02:01.852Z,18.63
2018-03-11T11:04:34.398Z,16.43
2018-03-11T11:07:01.969Z,15.97
2018-03-11T11:09:29.680Z,19.63
2018-03-11T11:11:57.578Z,18.80
2018-03-11T11:14:25.162Z,16.53
2018-03-11T11:16:52.806Z,20.20
2018-03-11T11:19:20.411Z,19.70
2018-03-11T11:21:48.027Z,21.00
2018-03-11T11:24:15.676Z,19.07
2018-03-11T11:26:45.512Z,20.30
2018-03-11T11:29:13.080Z,21.30
2018-03-11T11:31:40.731Z,27.10
2018-03-11T11:34:08.344Z,19.40
2018-03-11T11:36:35.925Z,20.07
2018-03-11T11:39:03.853Z,21.83
2018-03-11T11:41:32.528Z,27.20
2018-03-11T11:44:00.171Z,19.80
2018-03-11T11:46:27.758Z,21.97
2018-03-11T11:48:55.572Z,22.83
2018-03-11T11:51:23.194Z,20.37
2018-03-11T11:53:51.102Z,20.63
2018-03-11T11:56:18.718Z,18.43
2018-03-11T11:58:46.306Z,19.53
2018-03-11T12:01:13.924Z,20.37
2018-03-11T12:03:41.525Z,25.97
2018-03-11T12:06:09.150Z,19.70
2018-03-11T12:08:36.780Z,20.63
2018-03-11T12:11:04.493Z,19.27
2018-03-11T12:13:32.143Z,17.70
2018-03-11T12:15:59.826Z,16.70
2018-03-11T12:18:27.468Z,18.13
2018-03-11T12:20:55.114Z,21.33
2018-03-11T12:23:22.720Z,21.90
2018-03-11T12:25:50.363Z,18.60
2018-03-11T12:28:18.389Z,16.73
2018-03-11T12:30:45.973Z,19.77
2018-03-11T12:33:13.571Z,14.60
2018-03-11T12:35:41.169Z,14.90
2018-03-11T12:38:08.797Z,18.57
2018-03-11T12:40:36.363Z,11.77
2018-03-11T12:43:03.933Z,13.10
2018-03-11T12:45:31.606Z,16.13
2018-03-11T12:47:59.200Z,14.87
2018-03-11T12:50:27.036Z,11.00
2018-03-11T12:52:54.647Z,10.33
2018-03-11T12:55:22.203Z,10.87
2018-03-11T12:57:49.785Z,13.83
2018-03-11T13:00:17.407Z,11.23
2018-03-11T13:02:45.351Z,12.63
2018-03-11T13:05:12.959Z,11.40
2018-03-11T13:07:40.555Z,11.17
2018-03-11T13:10:08.156Z,11.10
2018-03-11T13:12:35.828Z,12.87
2018-03-11T13:15:03.416Z,8.37
2018-03-11T13:17:31.008Z,10.70
2018-03-11T13:20:10.601Z,10.63
2018-03-11T13:22:38.530Z,10.13
2018-03-11T13:25:06.170Z,9.87
2018-03-11T13:27:34.163Z,10.93
2018-03-11T13:30:01.735Z,9.97
2018-03-11T13:32:41.200Z,11.30
2018-03-11T13:35:11.834Z,8.67
2018-03-11T13:37:39.447Z,10.03
2018-03-11T13:40:19.197Z,9.83
2018-03-11T13:42:49.393Z,12.50
2018-03-11T13:45:38.144Z,7.43
2018-03-11T13:48:05.718Z,7.63
2018-03-11T13:50:33.367Z,7.90
2018-03-11T13:53:12.642Z,8.80
2018-03-11T13:55:40.662Z,8.50
2018-03-11T13:58:25.645Z,8.10
2018-03-11T14:00:53.212Z,9.40
2018-03-11T14:03:20.790Z,9.73
2018-03-11T14:05:48.414Z,10.30
2018-03-11T14:08:16.002Z,9.30
2018-03-11T14:10:43.589Z,9.23
2018-03-11T14:13:11.200Z,6.13
2018-03-11T14:15:38.835Z,12.30
2018-03-11T14:18:06.429Z,9.13
2018-03-11T14:20:34.088Z,6.70
2018-03-11T14:23:01.662Z,8.60
2018-03-11T14:25:29.280Z,6.70
2018-03-11T14:27:56.955Z,5.87
2018-03-11T14:30:24.542Z,5.30
2018-03-11T14:32:52.187Z,8.40
2018-03-11T14:35:19.803Z,8.43
2018-03-11T14:37:47.388Z,6.60
2018-03-11T14:40:15.011Z,5.80
2018-03-11T14:42:42.652Z,9.10
2018-03-11T14:45:10.266Z,5.27
2018-03-11T14:47:37.863Z,4.77
2018-03-11T14:50:05.763Z,4.13
2018-03-11T14:52:33.385Z,8.73
2018-03-11T14:55:01.056Z,6.93
2018-03-11T14:57:28.651Z,6.03
2018-03-11T14:59:56.235Z,5.93
2018-03-11T15:02:23.868Z,4.97
2018-03-11T15:04:51.495Z,5.10
2018-03-11T15:07:19.505Z,6.80
2018-03-11T15:09:47.142Z,5.07
2018-03-11T15:12:14.737Z,5.70
2018-03-11T15:14:42.384Z,5.17
2018-03-11T15:17:10.001Z,6.43
2018-03-11T15:19:37.638Z,5.10
2018-03-11T15:22:05.429Z,5.73
2018-03-11T15:24:33.064Z,5.03
2018-03-11T15:27:00.696Z,5.33
2018-03-11T15:29:28.545Z,4.93
2018-03-11T15:31:56.164Z,5.70
2018-03-11T15:34:23.934Z,5.53
2018-03-11T15:36:51.603Z,5.40
2018-03-11T15:39:19.213Z,7.47
2018-03-11T15:41:46.819Z,5.87
2018-03-11T15:44:14.479Z,5.70
2018-03-11T15:46:42.056Z,5.73
2018-03-11T15:49:09.814Z,8.60
2018-03-11T15:51:37.440Z,6.63
2018-03-11T15:54:05.012Z,5.67
2018-03-11T15:56:32.583Z,6.53
2018-03-11T15:59:00.219Z,7.80
2018-03-11T16:01:27.794Z,6.07
2018-03-11T16:03:55.443Z,7.60
2018-03-11T16:06:23.003Z,8.83
2018-03-11T16:08:50.569Z,8.17
2018-03-11T16:11:18.589Z,5.67
2018-03-11T16:13:47.666Z,5.57
2018-03-11T16:16:15.262Z,6.27
2018-03-11T16:18:42.902Z,5.93
2018-03-11T16:21:10.605Z,7.17
2018-03-11T16:23:38.193Z,7.57
2018-03-11T16:26:05.792Z,5.70
2018-03-11T16:28:33.482Z,6.40
2018-03-11T16:31:01.032Z,6.70
2018-03-11T16:33:28.647Z,7.53
2018-03-11T16:35:56.579Z,6.80
2018-03-11T16:38:24.150Z,12.00
2018-03-11T16:40:51.791Z,6.73
2018-03-11T16:43:19.391Z,7.30
2018-03-11T16:45:47.026Z,11.10
2018-03-11T16:48:14.651Z,5.80
2018-03-11T16:50:42.215Z,6.20
2018-03-11T16:53:09.911Z,6.20
2018-03-11T16:55:37.497Z,7.03
2018-03-11T16:58:05.085Z,6.43
2018-03-11T17:00:32.697Z,6.00
2018-03-11T17:03:00.457Z,6.10
2018-03-11T17:05:28.053Z,7.27
2018-03-11T17:07:55.727Z,6.00
2018-03-11T17:10:23.401Z,7.77
2018-03-11T17:12:51.005Z,5.57
2018-03-11T17:15:18.594Z,6.67
2018-03-11T17:17:46.285Z,5.87
2018-03-11T17:20:13.923Z,5.93
2018-03-11T17:22:41.519Z,6.73
2018-03-11T17:25:09.168Z,6.07
2018-03-11T17:27:36.815Z,9.90
2018-03-11T17:30:04.433Z,6.57
2018-03-11T17:32:33.095Z,8.57
2018-03-11T17:35:00.758Z,7.27
2018-03-11T17:37:28.358Z,6.67
2018-03-11T17:39:56.185Z,7.60
2018-03-11T17:42:23.794Z,8.87
2018-03-11T17:44:51.598Z,6.67
2018-03-11T17:47:19.534Z,16.83
2018-03-11T17:49:47.129Z,7.77
2018-03-11T17:52:29.063Z,5.47
2018-03-11T17:54:56.675Z,7.27
2018-03-11T17:57:24.285Z,6.87
2018-03-11T17:59:51.908Z,8.33
2018-03-11T18:02:19.525Z,11.23
2018-03-11T18:04:47.310Z,6.73
2018-03-11T18:07:15.181Z,7.20
2018-03-11T18:09:42.981Z,8.20
2018-03-11T18:12:10.678Z,7.13
2018-03-11T18:14:38.288Z,6.73
2018-03-11T18:17:05.912Z,7.00
2018-03-11T18:19:33.487Z,5.97
2018-03-11T18:22:01.127Z,10.03
2018-03-11T18:24:28.995Z,6.53
2018-03-11T18:26:56.648Z,10.60
2018-03-11T18:29:24.222Z,8.80
2018-03-11T18:31:51.854Z,9.57
2018-03-11T18:34:19.730Z,13.00
2018-03-11T18:36:47.357Z,8.57
2018-03-11T18:39:14.946Z,8.40
2018-03-11T18:41:42.634Z,8.50
2018-03-11T18:44:10.189Z,8.10
2018-03-11T18:46:38.141Z,6.50
2018-03-11T18:49:05.718Z,10.17
2018-03-11T18:51:33.574Z,11.93
2018-03-11T18:54:01.205Z,12.20
2018-03-11T18:56:28.820Z,10.70
2018-03-11T18:58:56.476Z,10.23
2018-03-11T19:01:24.136Z,20.93
2018-03-11T19:03:52.092Z,23.73
2018-03-11T19:06:19.728Z,19.97
2018-03-11T19:08:47.400Z,14.13
2018-03-11T19:11:15.011Z,8.30
2018-03-11T19:13:42.621Z,12.47
2018-03-11T19:16:10.271Z,15.10
2018-03-11T19:18:37.888Z,10.93
2018-03-11T19:21:05.499Z,14.53
2018-03-11T19:23:33.116Z,17.67
2018-03-11T19:26:00.692Z,19.90
2018-03-11T19:28:28.321Z,22.53
2018-03-11T19:30:59.876Z,24.57
2018-03-11T19:33:27.489Z,17.07
2018-03-11T19:35:55.121Z,15.40
2018-03-11T19:38:22.747Z,15.10
2018-03-11T19:40:50.342Z,19.73
2018-03-11T19:43:17.943Z,17.47
2018-03-11T19:46:04.484Z,16.20
2018-03-11T19:48:32.344Z,12.77
2018-03-11T19:51:01.293Z,14.87
2018-03-11T19:53:29.789Z,13.90
2018-03-11T19:55:57.497Z,12.47
2018-03-11T19:58:25.123Z,11.03
2018-03-11T20:00:54.986Z,13.20
2018-03-11T20:03:22.944Z,14.20
2018-03-11T20:05:50.518Z,11.90
2018-03-11T20:08:18.107Z,11.63
2018-03-11T20:10:45.733Z,12.00
2018-03-11T20:13:13.371Z,12.30
2018-03-11T20:15:40.962Z,11.70
2018-03-11T20:18:08.891Z,11.97
2018-03-11T20:20:36.755Z,11.70
2018-03-11T20:23:04.342Z,16.57
2018-03-11T20:25:31.984Z,12.80
2018-03-11T20:28:01.465Z,19.00
2018-03-11T20:30:41.324Z,16.67
2018-03-11T20:33:08.996Z,18.90
2018-03-11T20:35:36.600Z,23.33
2018-03-11T20:38:04.273Z,20.03
2018-03-11T20:40:32.193Z,22.00
2018-03-11T20:42:59.868Z,20.90
2018-03-11T20:45:27.815Z,19.57
2018-03-11T20:47:55.446Z,19.13
2018-03-11T20:50:23.682Z,22.50
2018-03-11T20:52:51.795Z,22.07
2018-03-11T20:55:19.520Z,18.53
2018-03-11T20:57:47.137Z,16.17
2018-03-11T21:00:16.916Z,26.93
2018-03-11T21:02:44.751Z,22.77
2018-03-11T21:05:12.344Z,25.77
2018-03-11T21:07:39.977Z,24.97
2018-03-11T21:10:08.137Z,22.97
2018-03-11T21:12:35.814Z,22.63
2018-03-11T21:15:03.464Z,22.20
2018-03-11T21:17:31.269Z,20.30
2018-03-11T21:19:58.857Z,20.20
2018-03-11T21:22:26.489Z,18.43
2018-03-11T21:24:54.080Z,24.63
2018-03-11T21:27:21.675Z,21.83
2018-03-11T21:29:51.535Z,26.27
2018-03-11T21:32:19.327Z,25.07
2018-03-11T21:34:47.115Z,19.70
2018-03-11T21:37:14.760Z,16.83
2018-03-11T21:39:42.340Z,19.03
2018-03-11T21:42:10.094Z,20.40
2018-03-11T21:44:37.729Z,18.87
2018-03-11T21:47:05.325Z,31.40
2018-03-11T21:49:32.975Z,24.13
2018-03-11T21:52:00.618Z,18.40
2018-03-11T21:54:28.206Z,21.33
2018-03-11T21:56:55.770Z,17.47
2018-03-11T21:59:23.439Z,22.07
2018-03-11T22:01:51.042Z,16.87
2018-03-11T22:04:19.125Z,18.13
2018-03-11T22:06:46.791Z,15.73
2018-03-11T22:09:14.370Z,18.50
2018-03-11T22:11:42.004Z,20.60
2018-03-11T22:14:09.631Z,18.50
2018-03-11T22:16:37.203Z,17.30
2018-03-11T22:19:04.821Z,18.07
2018-03-11T22:21:32.417Z,15.43
2018-03-11T22:24:02.360Z,19.60
2018-03-11T22:26:32.044Z,20.80
2018-03-11T22:28:59.912Z,24.73
2018-03-11T22:31:28.400Z,21.43
2018-03-11T22:33:56.132Z,23.10
2018-03-11T22:36:24.041Z,19.27
2018-03-11T22:38:51.699Z,19.73
2018-03-11T22:41:19.276Z,20.40
2018-03-11T22:43:47.277Z,18.70
2018-03-11T22:46:15.143Z,18.33
2018-03-11T22:48:42.932Z,20.17
2018-03-11T22:51:10.706Z,19.70
2018-03-11T22:53:38.357Z,19.57
2018-03-11T22:56:06.046Z,22.50
2018-03-11T22:58:33.629Z,18.13
2018-03-11T23:01:01.338Z,20.10
2018-03-11T23:03:29.142Z,17.90
2018-03-11T23:05:57.030Z,20.30
2018-03-11T23:08:24.614Z,17.13
2018-03-11T23:10:52.224Z,17.43
2018-03-11T23:13:19.841Z,15.50
2018-03-11T23:15:47.420Z,19.07
2018-03-11T23:18:15.002Z,14.97
2018-03-11T23:20:42.576Z,16.53
2018-03-11T23:23:10.183Z,14.07
2018-03-11T23:25:37.823Z,14.80
2018-03-11T23:28:05.417Z,22.70
2018-03-11T23:30:33.029Z,16.57
2018-03-11T23:33:00.647Z,16.40
2018-03-11T23:35:28.221Z,18.53
2018-03-11T23:37:55.823Z,15.83
2018-03-11T23:40:23.465Z,15.70
2018-03-11T23:42:51.129Z,16.33
2018-03-11T23:45:18.727Z,20.47
2018-03-11T23:47:46.365Z,18.10
2018-03-11T23:50:14.008Z,17.87
2018-03-11T23:52:41.932Z,17.20
2018-03-11T23:55:09.560Z,16.67
2018-03-11T23:57:37.200Z,16.60
